Time;durP1;ratioP1;P1;durP2;ratioP2;P2;SDS_P1;SDS_P2;PMS_P1;PMS_P2;Temp;Humidity;BMP_temperature;BMP_pressure;BME280_temperature;BME280_humidity;BME280_pressure;Samples;Min_cycle;Max_cycle;Signal;HPM_P1;HPM_P2
2022/02/12 00:00:51;;;;;;;11.87;6.10;;;4.10;99.40;;;;;;5016337;28;20472;-86
2022/02/12 00:03:40;;;;;;;9.23;5.20;;;4.20;99.40;;;;;;4996889;28;20551;-87
2022/02/12 00:06:21;;;;;;;11.20;5.40;;;4.30;99.10;;;;;;5001667;28;21489;-82
2022/02/12 00:09:02;;;;;;;10.40;5.37;;;4.20;99.10;;;;;;4990786;28;20453;-82
2022/02/12 00:11:50;;;;;;;11.97;6.33;;;4.20;99.10;;;;;;4996413;28;20451;-87
2022/02/12 00:14:17;;;;;;;11.90;6.17;;;4.20;99.20;;;;;;4984268;28;20539;-83
2022/02/12 00:16:47;;;;;;;12.27;5.47;;;4.30;98.80;;;;;;4979171;28;20468;-86
2022/02/12 00:19:19;;;;;;;12.03;6.10;;;4.10;99.10;;;;;;4980187;28;20484;-86
2022/02/12 00:21:48;;;;;;;12.53;6.47;;;4.20;99.30;;;;;;4978059;28;20463;-85
2022/02/12 00:24:18;;;;;;;9.67;5.67;;;4.30;99.10;;;;;;4998066;28;21087;-84
2022/02/12 00:26:46;;;;;;;10.60;5.30;;;4.30;98.80;;;;;;4998600;28;20460;-84
2022/02/12 00:29:15;;;;;;;10.23;5.17;;;4.20;98.80;;;;;;4980839;28;20474;-85
2022/02/12 00:32:08;;;;;;;13.30;7.23;;;4.10;99.00;;;;;;4982081;28;20871;-85
2022/02/12 00:34:44;;;;;;;12.80;6.57;;;4.10;99.10;;;;;;4995753;28;20550;-86
2022/02/12 00:37:16;;;;;;;8.20;5.07;;;4.20;99.30;;;;;;4996781;28;20511;-83
2022/02/12 00:39:56;;;;;;;12.97;5.93;;;4.20;99.40;;;;;;4997098;28;20491;-84
2022/02/12 00:42:26;;;;;;;12.67;6.57;;;4.10;99.60;;;;;;5008054;28;20468;-79
2022/02/12 00:45:03;;;;;;;10.93;6.07;;;4.10;99.90;;;;;;4995562;28;20472;-87
2022/02/12 00:47:40;;;;;;;14.90;6.77;;;4.10;99.90;;;;;;4993174;28;20504;-87
2022/02/12 00:50:22;;;;;;;11.90;5.97;;;3.90;99.90;;;;;;4994382;28;20454;-83
2022/02/12 00:53:05;;;;;;;9.80;5.70;;;3.70;99.90;;;;;;5013232;28;20498;-83
2022/02/12 00:55:35;;;;;;;13.13;6.53;;;3.70;99.90;;;;;;5008549;28;20621;-85
2022/02/12 00:58:14;;;;;;;9.63;5.23;;;3.80;99.90;;;;;;4985895;28;20468;-87
2022/02/12 01:00:53;;;;;;;17.50;6.40;;;4.00;99.90;;;;;;4988672;28;20449;-85
2022/02/12 01:03:31;;;;;;;13.03;6.67;;;3.80;99.90;;;;;;4985225;28;20544;-86
2022/02/12 01:06:10;;;;;;;12.00;6.03;;;4.00;99.90;;;;;;4982400;28;20460;-83
2022/02/12 01:08:42;;;;;;;10.70;7.60;;;3.90;99.90;;;;;;4992641;28;20475;-84
2022/02/12 01:11:15;;;;;;;11.47;5.00;;;3.80;99.90;;;;;;4987880;28;20473;-84
2022/02/12 01:13:48;;;;;;;8.73;6.33;;;3.80;99.90;;;;;;4983255;28;20527;-85
2022/02/12 01:16:20;;;;;;;7.53;5.27;;;3.80;99.90;;;;;;4966968;28;20503;-85
2022/02/12 01:18:54;;;;;;;11.43;5.80;;;3.80;99.90;;;;;;4967866;28;20498;-84
2022/02/12 01:21:24;;;;;;;6.80;5.53;;;3.90;99.90;;;;;;4972030;28;20481;-83
2022/02/12 01:23:53;;;;;;;9.63;5.27;;;3.90;99.90;;;;;;4979761;28;20484;-84
2022/02/12 01:26:21;;;;;;;11.07;5.90;;;3.80;99.90;;;;;;4992992;28;20464;-84
2022/02/12 01:28:49;;;;;;;17.43;6.40;;;3.70;99.90;;;;;;4986568;28;20497;-83
2022/02/12 01:31:21;;;;;;;8.60;5.40;;;3.80;99.90;;;;;;4978106;28;20536;-85
2022/02/12 01:33:54;;;;;;;17.70;6.10;;;3.70;99.90;;;;;;4979667;28;20486;-84
2022/02/12 01:36:23;;;;;;;8.23;4.57;;;3.60;99.90;;;;;;4981619;28;20444;-84
2022/02/12 01:38:50;;;;;;;12.20;5.40;;;3.60;99.90;;;;;;4984608;28;20511;-84
2022/02/12 01:41:18;;;;;;;20.93;7.07;;;3.70;99.90;;;;;;4985014;28;20470;-84
2022/02/12 01:43:45;;;;;;;6.53;4.90;;;3.70;99.90;;;;;;4981995;28;20538;-81
2022/02/12 01:46:14;;;;;;;10.13;5.40;;;3.70;99.90;;;;;;4977479;28;20503;-82
2022/02/12 01:48:44;;;;;;;12.43;5.90;;;3.60;99.90;;;;;;4978910;28;20468;-83
2022/02/12 01:51:12;;;;;;;10.40;5.73;;;3.50;99.90;;;;;;4972027;28;20473;-83
2022/02/12 01:53:50;;;;;;;9.93;4.83;;;3.50;99.90;;;;;;4981097;28;20479;-83
2022/02/12 01:56:28;;;;;;;7.90;4.97;;;3.50;99.90;;;;;;4962113;28;21102;-83
2022/02/12 01:58:59;;;;;;;13.93;6.13;;;3.40;99.90;;;;;;4962031;28;20492;-83
2022/02/12 02:01:29;;;;;;;12.63;7.10;;;3.40;99.90;;;;;;4972239;28;20474;-83
2022/02/12 02:04:03;;;;;;;15.87;5.23;;;3.50;99.90;;;;;;4958454;28;20488;-82
2022/02/12 02:06:36;;;;;;;11.23;5.63;;;3.40;99.90;;;;;;4976652;28;21818;-83
2022/02/12 02:09:12;;;;;;;6.13;5.07;;;3.60;99.90;;;;;;4983120;28;20455;-85
2022/02/12 02:11:56;;;;;;;;;;;;;;;;;;;;;
2022/02/12 02:14:37;;;;;;;11.10;5.07;;;3.50;99.90;;;;;;4965560;28;20474;-84
2022/02/12 02:17:21;;;;;;;12.40;5.40;;;3.40;99.90;;;;;;4965544;28;20469;-85
2022/02/12 02:19:54;;;;;;;11.13;5.60;;;3.40;99.90;;;;;;4963255;28;20849;-84
2022/02/12 02:22:36;;;;;;;9.57;5.40;;;3.50;99.90;;;;;;4969652;28;20518;-85
2022/02/12 02:25:07;;;;;;;7.30;4.40;;;3.40;99.90;;;;;;4967947;28;20515;-84
2022/02/12 02:27:37;;;;;;;7.60;3.80;;;3.40;99.90;;;;;;4989985;28;20469;-83
2022/02/12 02:30:05;;;;;;;9.67;5.03;;;3.40;99.90;;;;;;4990566;28;20479;-85
2022/02/12 02:32:44;;;;;;;5.37;4.30;;;3.30;99.90;;;;;;4971165;28;20516;-85
2022/02/12 02:35:22;;;;;;;6.27;4.90;;;3.20;99.90;;;;;;4972185;28;20464;-85
2022/02/12 02:37:55;;;;;;;7.00;4.53;;;3.10;99.90;;;;;;4986021;28;20469;-85
2022/02/12 02:40:37;;;;;;;9.17;4.97;;;3.00;99.90;;;;;;4972589;28;21082;-85
2022/02/12 02:43:05;;;;;;;12.10;4.30;;;3.00;99.90;;;;;;4981533;28;20471;-84
2022/02/12 02:45:35;;;;;;;13.40;4.60;;;2.90;99.90;;;;;;4986829;28;20505;-84
2022/02/12 02:48:15;;;;;;;8.33;4.80;;;2.80;99.90;;;;;;4985217;28;20468;-84
2022/02/12 02:56:22;;;;;;;13.50;5.37;;;2.80;99.90;;;;;;4964932;28;20528;-85
2022/02/12 02:58:54;;;;;;;12.90;5.50;;;2.90;99.90;;;;;;4969614;28;20464;-84
2022/02/12 03:01:29;;;;;;;9.03;5.47;;;2.90;99.90;;;;;;4965763;28;20505;-86
2022/02/12 03:04:04;;;;;;;7.70;4.73;;;2.90;99.90;;;;;;4983285;28;20517;-85
2022/02/12 03:06:33;;;;;;;9.30;3.83;;;2.90;99.90;;;;;;4972952;28;22176;-85
2022/02/12 03:09:02;;;;;;;15.50;5.50;;;2.90;99.90;;;;;;4990751;28;20460;-84
2022/02/12 03:11:33;;;;;;;12.83;5.60;;;2.90;99.90;;;;;;4969398;28;20592;-86
2022/02/12 03:14:06;;;;;;;7.67;4.40;;;2.80;99.90;;;;;;4974673;28;20451;-84
2022/02/12 03:16:36;;;;;;;12.87;4.47;;;2.70;99.90;;;;;;4996497;28;20525;-84
2022/02/12 03:19:03;;;;;;;6.80;4.87;;;2.80;99.90;;;;;;4978842;28;20463;-85
2022/02/12 03:21:39;;;;;;;8.20;4.53;;;2.80;99.90;;;;;;4991023;28;20458;-83
2022/02/12 03:24:25;;;;;;;8.30;4.40;;;2.80;99.90;;;;;;4932299;29;20952;-85
2022/02/12 03:26:58;;;;;;;13.27;6.37;;;2.80;99.90;;;;;;4928775;29;20587;-84
2022/02/12 03:29:26;;;;;;;11.57;5.27;;;2.80;99.90;;;;;;4916379;29;20463;-84
2022/02/12 03:31:57;;;;;;;9.73;4.60;;;2.60;99.90;;;;;;4923472;29;20492;-85
2022/02/12 03:34:33;;;;;;;11.20;5.40;;;2.50;99.90;;;;;;4929312;29;20479;-83
2022/02/12 03:37:15;;;;;;;9.33;4.40;;;2.70;99.90;;;;;;4918321;29;20507;-85
2022/02/12 03:39:44;;;;;;;9.63;5.13;;;2.70;99.90;;;;;;4913754;29;20700;-84
2022/02/12 03:42:13;;;;;;;10.93;4.27;;;2.80;99.90;;;;;;4920823;29;20481;-84
2022/02/12 03:44:46;;;;;;;6.40;4.13;;;2.70;99.90;;;;;;4912785;29;20549;-83
2022/02/12 03:47:25;;;;;;;14.43;5.77;;;2.70;99.90;;;;;;4893015;29;20457;-84
2022/02/12 03:49:51;;;;;;;14.40;5.70;;;2.80;99.90;;;;;;4967600;28;20505;-85
2022/02/12 03:52:20;;;;;;;10.00;4.70;;;2.80;99.90;;;;;;4978943;28;20513;-86
2022/02/12 03:54:47;;;;;;;7.93;4.37;;;2.70;99.90;;;;;;4976166;28;20472;-85
2022/02/12 03:57:17;;;;;;;7.33;4.27;;;2.70;99.90;;;;;;4998581;28;20578;-84
2022/02/12 03:59:50;;;;;;;9.83;4.63;;;2.60;99.90;;;;;;4974716;28;20534;-82
2022/02/12 04:02:25;;;;;;;9.83;5.03;;;2.70;99.90;;;;;;4974281;28;20530;-85
2022/02/12 04:04:57;;;;;;;12.53;5.10;;;2.60;99.90;;;;;;4993026;28;20467;-83
2022/02/12 04:07:35;;;;;;;10.33;5.00;;;2.50;99.90;;;;;;4975286;28;20448;-84
2022/02/12 04:10:15;;;;;;;11.83;4.87;;;2.50;99.90;;;;;;4989903;28;20469;-83
2022/02/12 04:12:54;;;;;;;9.17;4.83;;;2.50;99.90;;;;;;4990213;28;20494;-85
2022/02/12 04:15:34;;;;;;;6.10;4.97;;;2.50;99.90;;;;;;4978027;28;20475;-86
2022/02/12 04:18:03;;;;;;;8.70;4.90;;;2.50;99.90;;;;;;4975246;28;20468;-85
2022/02/12 04:20:39;;;;;;;7.80;3.43;;;2.50;99.90;;;;;;4974357;28;20479;-85
2022/02/12 04:23:09;;;;;;;11.00;5.07;;;2.50;99.90;;;;;;4976158;28;21061;-86
2022/02/12 04:25:38;;;;;;;9.00;5.23;;;2.60;99.90;;;;;;4989096;28;20475;-85
2022/02/12 04:28:09;;;;;;;14.23;5.50;;;2.60;99.90;;;;;;4982030;28;20457;-85
2022/02/12 04:30:43;;;;;;;10.40;5.07;;;2.50;99.90;;;;;;4982511;28;20460;-85
2022/02/12 04:33:19;;;;;;;11.37;5.27;;;2.40;99.90;;;;;;4995425;28;20510;-85
2022/02/12 04:35:48;;;;;;;7.80;4.23;;;2.40;99.90;;;;;;4975041;28;20506;-86
2022/02/12 04:38:25;;;;;;;7.53;4.70;;;2.40;99.90;;;;;;4978879;28;20472;-84
2022/02/12 04:40:52;;;;;;;11.90;5.60;;;2.50;99.90;;;;;;4978254;28;20490;-86
2022/02/12 04:43:19;;;;;;;9.70;5.03;;;2.50;99.90;;;;;;4978567;28;20483;-84
2022/02/12 04:45:48;;;;;;;7.80;4.07;;;2.50;99.90;;;;;;4980151;28;20463;-84
2022/02/12 04:48:18;;;;;;;8.63;4.40;;;2.40;99.90;;;;;;4979780;28;20916;-83
2022/02/12 04:50:44;;;;;;;10.07;5.07;;;2.40;99.90;;;;;;4985777;28;20551;-84
2022/02/12 04:53:18;;;;;;;8.60;5.20;;;2.50;99.90;;;;;;4987976;28;20542;-84
2022/02/12 04:55:58;;;;;;;11.73;5.73;;;2.40;99.90;;;;;;4978376;28;20703;-85
2022/02/12 04:58:31;;;;;;;10.47;5.20;;;2.40;99.90;;;;;;4979334;28;20490;-84
2022/02/12 05:01:20;;;;;;;7.47;4.53;;;2.40;99.90;;;;;;5002325;28;20475;-83
2022/02/12 05:03:57;;;;;;;17.13;4.73;;;2.30;99.90;;;;;;4989040;28;20487;-84
2022/02/12 05:06:26;;;;;;;9.53;4.83;;;2.40;99.90;;;;;;4996664;28;20525;-85
2022/02/12 05:08:59;;;;;;;13.97;5.73;;;2.40;99.90;;;;;;5011051;28;20463;-85
2022/02/12 05:11:35;;;;;;;8.40;5.30;;;2.30;99.90;;;;;;4995818;28;20483;-85
2022/02/12 05:14:02;;;;;;;11.27;5.00;;;2.20;99.90;;;;;;4998691;28;20471;-86
2022/02/12 05:16:46;;;;;;;13.10;5.87;;;2.20;99.90;;;;;;4990176;28;20630;-85
2022/02/12 05:19:15;;;;;;;7.67;4.83;;;2.40;99.90;;;;;;4987533;28;20502;-84
2022/02/12 05:21:44;;;;;;;16.07;5.67;;;2.50;99.90;;;;;;4981119;28;20566;-84
2022/02/12 05:24:12;;;;;;;14.87;5.80;;;2.40;99.90;;;;;;4973686;28;20475;-83
2022/02/12 05:26:45;;;;;;;11.30;5.77;;;2.40;99.90;;;;;;4975257;28;20480;-84
2022/02/12 05:29:20;;;;;;;12.60;5.37;;;2.30;99.90;;;;;;4975306;28;20583;-85
2022/02/12 05:31:53;;;;;;;6.90;4.87;;;2.40;99.90;;;;;;4997785;28;20508;-85
2022/02/12 05:34:20;;;;;;;10.80;4.83;;;2.50;99.90;;;;;;4974211;28;20460;-84
2022/02/12 05:36:50;;;;;;;11.90;5.90;;;2.40;99.90;;;;;;4992628;28;20568;-85
2022/02/12 05:39:31;;;;;;;7.57;4.97;;;2.30;99.90;;;;;;4977795;28;20496;-83
2022/02/12 05:42:01;;;;;;;7.13;4.43;;;2.40;99.90;;;;;;4975680;28;20559;-84
2022/02/12 05:44:31;;;;;;;11.43;5.27;;;2.50;99.90;;;;;;4976145;28;20469;-84
2022/02/12 05:46:58;;;;;;;14.70;4.97;;;2.40;99.90;;;;;;4990533;28;20557;-85
2022/02/12 05:49:25;;;;;;;6.63;4.60;;;2.40;99.90;;;;;;4971483;28;20461;-86
2022/02/12 05:51:59;;;;;;;8.10;5.13;;;2.20;99.90;;;;;;4987623;28;20476;-85
2022/02/12 05:54:28;;;;;;;17.30;6.00;;;2.20;99.90;;;;;;4991660;28;20530;-83
2022/02/12 05:56:57;;;;;;;13.57;5.27;;;2.20;99.90;;;;;;4974729;28;20442;-85
2022/02/12 05:59:29;;;;;;;10.73;5.43;;;2.20;99.90;;;;;;4972901;28;20464;-85
2022/02/12 06:02:01;;;;;;;7.33;4.33;;;2.00;99.90;;;;;;4992087;28;20542;-84
2022/02/12 06:04:33;;;;;;;10.63;4.47;;;2.00;99.90;;;;;;4988917;28;20465;-84
2022/02/12 06:07:05;;;;;;;10.70;3.80;;;2.20;99.90;;;;;;4980925;28;20456;-85
2022/02/12 06:09:32;;;;;;;9.43;4.87;;;2.20;99.90;;;;;;4988753;28;20449;-83
2022/02/12 06:12:10;;;;;;;11.03;5.07;;;2.20;99.90;;;;;;4980202;28;21096;-86
2022/02/12 06:14:44;;;;;;;6.53;4.83;;;2.00;99.90;;;;;;4978071;28;20461;-83
2022/02/12 06:17:13;;;;;;;9.73;4.77;;;1.90;99.90;;;;;;4976694;28;20514;-83
2022/02/12 06:19:46;;;;;;;14.47;5.23;;;2.10;99.90;;;;;;4959693;28;20471;-83
2022/02/12 06:22:18;;;;;;;12.87;4.67;;;2.00;99.90;;;;;;4960595;28;20531;-83
2022/02/12 06:24:55;;;;;;;12.90;5.73;;;1.90;99.90;;;;;;4977863;28;20464;-84
2022/02/12 06:27:22;;;;;;;18.27;5.93;;;1.90;99.90;;;;;;4961259;28;20468;-83
2022/02/12 06:29:49;;;;;;;10.63;5.40;;;1.80;99.90;;;;;;4957097;28;20472;-83
2022/02/12 06:32:20;;;;;;;10.30;4.70;;;1.90;99.90;;;;;;4972665;28;22694;-83
2022/02/12 06:34:51;;;;;;;11.67;4.83;;;2.00;99.90;;;;;;4961945;28;20493;-84
2022/02/12 06:37:20;;;;;;;9.27;5.40;;;1.90;99.90;;;;;;4960407;28;20537;-83
2022/02/12 06:39:57;;;;;;;9.07;5.33;;;2.00;99.90;;;;;;4956215;28;20460;-83
2022/02/12 06:42:28;;;;;;;7.23;5.20;;;2.00;99.90;;;;;;4970895;28;20584;-83
2022/02/12 06:44:54;;;;;;;8.40;5.47;;;2.00;99.90;;;;;;4956903;28;20472;-84
2022/02/12 06:47:24;;;;;;;12.10;5.23;;;2.00;99.90;;;;;;4975072;28;20964;-82
2022/02/12 06:49:55;;;;;;;10.47;5.10;;;2.00;99.90;;;;;;4964381;28;20491;-84
2022/02/12 06:52:27;;;;;;;9.00;5.03;;;2.00;99.90;;;;;;4965770;28;20482;-86
2022/02/12 06:54:57;;;;;;;12.00;5.13;;;2.10;99.90;;;;;;4961431;28;20452;-84
2022/02/12 06:57:27;;;;;;;9.77;5.33;;;2.00;99.90;;;;;;4982476;28;20472;-81
2022/02/12 07:00:08;;;;;;;9.57;4.60;;;1.90;99.90;;;;;;4973188;28;20460;-85
2022/02/12 07:02:44;;;;;;;10.67;5.50;;;2.00;99.90;;;;;;4972888;28;20484;-83
2022/02/12 07:05:10;;;;;;;19.60;6.00;;;2.10;99.90;;;;;;4989223;28;20502;-82
2022/02/12 07:07:44;;;;;;;14.57;5.67;;;2.10;99.90;;;;;;4973443;28;21016;-85
2022/02/12 07:10:25;;;;;;;11.53;6.40;;;2.20;99.90;;;;;;4976758;28;20458;-85
2022/02/12 07:12:52;;;;;;;13.03;5.80;;;2.20;99.90;;;;;;4978133;28;20502;-85
2022/02/12 07:15:19;;;;;;;9.40;4.67;;;2.20;99.90;;;;;;4973779;28;20460;-84
2022/02/12 07:17:47;;;;;;;8.73;5.13;;;2.30;99.90;;;;;;4973342;28;20456;-84
2022/02/12 07:20:14;;;;;;;12.13;6.17;;;2.20;99.90;;;;;;4982207;28;20476;-83
2022/02/12 07:22:50;;;;;;;14.73;5.30;;;2.30;99.90;;;;;;4971568;28;20508;-84
2022/02/12 07:25:17;;;;;;;11.67;5.50;;;2.80;99.90;;;;;;4985256;28;20461;-83
2022/02/12 07:27:58;;;;;;;8.77;5.07;;;3.90;99.90;;;;;;4972069;28;20977;-84
2022/02/12 07:30:31;;;;;;;7.60;5.57;;;5.10;99.80;;;;;;4973126;28;20460;-84
2022/02/12 07:33:08;;;;;;;9.30;4.93;;;5.70;96.60;;;;;;4979347;28;20859;-83
2022/02/12 07:35:50;;;;;;;10.17;5.20;;;5.90;94.20;;;;;;4977850;28;20598;-85
2022/02/12 07:38:17;;;;;;;10.90;5.30;;;6.10;93.60;;;;;;4992684;28;20463;-85
2022/02/12 07:40:44;;;;;;;9.27;4.70;;;6.40;93.30;;;;;;4989820;28;20549;-83
2022/02/12 07:43:14;;;;;;;10.93;5.30;;;5.80;92.60;;;;;;4975460;28;20477;-84
2022/02/12 07:45:43;;;;;;;8.07;4.63;;;5.20;93.80;;;;;;4979065;28;20459;-85
2022/02/12 07:48:13;;;;;;;6.57;4.57;;;4.80;94.90;;;;;;4976252;28;20593;-85
2022/02/12 07:50:43;;;;;;;9.07;5.50;;;4.50;96.30;;;;;;4972209;28;20460;-85
2022/02/12 07:53:14;;;;;;;6.60;5.90;;;4.20;96.60;;;;;;4973013;28;21001;-84
2022/02/12 07:55:51;;;;;;;10.20;4.70;;;4.20;97.50;;;;;;4990584;28;20456;-84
2022/02/12 07:58:19;;;;;;;13.13;5.10;;;4.20;97.60;;;;;;4993119;28;20467;-85
2022/02/12 08:00:51;;;;;;;9.70;5.97;;;4.40;97.20;;;;;;4991852;28;20484;-84
2022/02/12 08:03:20;;;;;;;9.93;4.73;;;4.30;97.30;;;;;;4979409;28;20504;-85
2022/02/12 08:05:52;;;;;;;12.40;6.17;;;4.40;97.50;;;;;;4974513;28;20452;-86
2022/02/12 08:08:22;;;;;;;7.07;4.30;;;4.50;96.40;;;;;;4978838;28;20861;-84
2022/02/12 08:13:43;;;;;;;7.80;4.93;;;3.90;97.00;;;;;;4979953;28;20513;-85
2022/02/12 08:16:11;;;;;;;8.17;4.43;;;3.80;97.90;;;;;;4980643;28;20507;-84
2022/02/12 08:18:51;;;;;;;8.70;4.60;;;3.80;98.00;;;;;;4984524;28;20461;-82
2022/02/12 08:21:32;;;;;;;7.00;4.40;;;3.60;98.40;;;;;;4996616;28;20491;-85
2022/02/12 08:24:03;;;;;;;9.13;5.63;;;3.50;99.00;;;;;;4997271;28;20625;-84
2022/02/12 08:26:39;;;;;;;9.53;4.80;;;3.40;99.10;;;;;;4990678;28;20442;-84
2022/02/12 08:29:12;;;;;;;13.20;4.90;;;3.20;99.90;;;;;;4991330;28;20527;-83
2022/02/12 08:31:39;;;;;;;12.33;5.10;;;3.20;99.90;;;;;;4989153;28;20484;-82
2022/02/12 08:34:15;;;;;;;13.63;6.93;;;3.30;99.90;;;;;;4986069;28;20598;-84
2022/02/12 08:36:45;;;;;;;9.90;4.53;;;3.30;99.90;;;;;;4982015;28;20448;-84
2022/02/12 08:39:12;;;;;;;6.40;3.83;;;3.40;99.90;;;;;;4985437;28;20486;-83
2022/02/12 08:41:41;;;;;;;8.50;4.40;;;3.30;99.90;;;;;;5003332;28;20475;-85
2022/02/12 08:44:12;;;;;;;13.07;6.60;;;3.40;99.90;;;;;;4987108;28;20446;-84
2022/02/12 08:46:43;;;;;;;11.23;6.07;;;3.40;99.90;;;;;;4981484;28;20502;-84
2022/02/12 08:49:19;;;;;;;9.40;5.00;;;3.50;99.90;;;;;;4993122;28;20454;-84
2022/02/12 08:51:55;;;;;;;10.33;5.03;;;3.60;99.90;;;;;;4992545;28;20543;-84
2022/02/12 08:54:38;;;;;;;19.77;6.83;;;3.80;99.80;;;;;;4973841;28;20874;-85
2022/02/12 08:57:17;;;;;;;5.73;4.70;;;3.70;99.70;;;;;;4977964;28;20458;-84
2022/02/12 08:59:53;;;;;;;9.73;4.97;;;3.80;99.90;;;;;;4975280;28;20455;-84
2022/02/12 09:02:41;;;;;;;12.60;5.77;;;4.00;99.50;;;;;;4979520;28;20522;-86
2022/02/12 09:05:26;;;;;;;11.00;5.80;;;4.10;99.30;;;;;;4973143;28;20487;-84
2022/02/12 09:07:53;;;;;;;8.77;4.50;;;4.10;99.30;;;;;;4994558;28;20498;-84
2022/02/12 09:10:21;;;;;;;5.40;3.80;;;4.20;98.70;;;;;;4977514;28;20526;-84
2022/02/12 09:12:57;;;;;;;16.67;4.77;;;4.30;98.40;;;;;;4977191;28;20515;-85
2022/02/12 09:15:34;;;;;;;6.73;4.10;;;4.10;98.50;;;;;;4973111;28;21000;-84
2022/02/12 09:18:11;;;;;;;10.30;4.90;;;4.00;98.50;;;;;;4978280;28;21471;-85
2022/02/12 09:20:42;;;;;;;12.53;4.40;;;3.90;98.70;;;;;;4973958;28;20486;-84
2022/02/12 09:23:16;;;;;;;10.60;4.90;;;4.00;98.60;;;;;;4977227;28;20476;-85
2022/02/12 09:25:49;;;;;;;9.83;4.00;;;4.10;98.30;;;;;;4974702;28;20474;-85
2022/02/12 09:28:16;;;;;;;12.50;4.77;;;4.10;98.40;;;;;;4976873;28;21523;-84
2022/02/12 09:30:48;;;;;;;8.33;5.27;;;4.30;98.40;;;;;;4976307;28;20481;-82
2022/02/12 09:33:26;;;;;;;11.00;4.97;;;4.10;98.10;;;;;;4982150;28;20453;-84
2022/02/12 09:35:56;;;;;;;11.77;4.60;;;4.20;98.30;;;;;;4998026;28;20457;-83
2022/02/12 09:38:31;;;;;;;11.47;4.67;;;4.50;97.80;;;;;;4974939;28;20989;-84
2022/02/12 09:41:11;;;;;;;9.67;4.13;;;4.50;97.00;;;;;;4989499;28;20531;-83
2022/02/12 09:43:45;;;;;;;11.47;4.37;;;4.40;97.10;;;;;;4973110;28;20488;-84
2022/02/12 09:46:49;;;;;;;6.93;3.57;;;4.90;96.60;;;;;;4976236;28;20459;-83
2022/02/12 09:49:17;;;;;;;8.93;4.70;;;4.90;96.30;;;;;;4990906;28;20445;-83
2022/02/12 09:51:44;;;;;;;7.60;3.97;;;4.90;95.70;;;;;;4976111;28;20475;-84
2022/02/12 09:54:11;;;;;;;7.20;3.60;;;4.90;96.10;;;;;;4973472;28;20461;-84
2022/02/12 09:56:40;;;;;;;9.17;4.07;;;5.10;95.80;;;;;;4978555;28;20491;-84
2022/02/12 09:59:07;;;;;;;7.90;4.23;;;4.90;95.90;;;;;;4989900;28;20461;-83
2022/02/12 10:01:37;;;;;;;5.03;3.50;;;5.10;96.50;;;;;;4983140;28;20485;-82
2022/02/12 10:04:16;;;;;;;6.27;3.33;;;5.90;95.30;;;;;;4982820;28;20504;-83
2022/02/12 10:06:45;;;;;;;8.13;3.40;;;6.60;92.30;;;;;;4984557;28;20448;-84
2022/02/12 10:09:14;;;;;;;12.03;4.30;;;6.90;91.70;;;;;;4979229;28;20511;-84
2022/02/12 10:14:42;;;;;;;7.13;3.83;;;8.20;88.30;;;;;;1434272;26;20488;-81
2022/02/12 10:17:24;;;;;;;26.13;3.33;;;8.20;86.00;;;;;;4951373;29;20463;-83
2022/02/12 10:20:01;;;;;;;8.43;4.80;;;7.80;87.70;;;;;;4958474;28;20458;-84
2022/02/12 10:26:19;;;;;;;10.40;5.50;;;7.50;90.00;;;;;;4979853;28;20547;-85
2022/02/12 10:28:55;;;;;;;7.10;4.00;;;7.20;90.30;;;;;;4993988;28;20460;-84
2022/02/12 10:31:42;;;;;;;6.20;3.27;;;6.90;90.50;;;;;;4981466;28;20456;-86
2022/02/12 10:34:13;;;;;;;5.10;2.10;;;6.40;91.20;;;;;;4983717;28;20465;-82
2022/02/12 10:36:40;;;;;;;10.23;3.87;;;6.10;92.00;;;;;;4999012;28;20550;-84
2022/02/12 10:39:25;;;;;;;6.43;4.47;;;6.00;92.80;;;;;;4990324;28;20531;-84
2022/02/12 10:42:10;;;;;;;8.97;3.70;;;5.90;93.00;;;;;;4979119;28;20477;-84
2022/02/12 10:45:27;;;;;;;9.70;4.23;;;5.90;93.20;;;;;;4978671;28;20457;-86
2022/02/12 10:48:20;;;;;;;15.27;5.23;;;5.90;93.60;;;;;;4994157;28;20519;-85
2022/02/12 10:51:16;;;;;;;7.73;3.80;;;6.20;93.50;;;;;;4979697;28;20993;-84
2022/02/12 10:54:05;;;;;;;7.57;3.30;;;6.20;93.30;;;;;;4976945;28;20502;-85
2022/02/12 10:57:01;;;;;;;5.17;3.03;;;6.40;93.10;;;;;;4968666;28;20453;-84
2022/02/12 11:00:01;;;;;;;8.63;3.77;;;6.50;92.70;;;;;;4986831;28;20487;-84
2022/02/12 11:02:51;;;;;;;8.07;3.60;;;6.60;92.60;;;;;;4973161;28;20486;-86
2022/02/12 11:05:35;;;;;;;7.67;2.87;;;6.30;92.40;;;;;;4977569;28;20512;-83
2022/02/12 11:08:13;;;;;;;3.37;2.53;;;6.50;92.60;;;;;;4973132;28;20499;-84
2022/02/12 11:11:09;;;;;;;3.37;2.93;;;6.40;92.40;;;;;;4972997;28;20491;-85
2022/02/12 11:14:25;;;;;;;10.70;3.47;;;6.60;92.10;;;;;;4928413;29;21966;-83
2022/02/12 11:17:14;;;;;;;9.33;3.77;;;6.50;91.90;;;;;;4935460;29;20520;-84
2022/02/12 11:20:23;;;;;;;7.90;3.53;;;6.50;91.30;;;;;;4927624;29;20513;-83
2022/02/12 11:23:24;;;;;;;5.90;3.00;;;6.60;91.60;;;;;;4930199;29;20487;-84
2022/02/12 11:25:55;;;;;;;5.17;2.50;;;6.50;91.80;;;;;;4929723;29;20486;-85
2022/02/12 11:28:29;;;;;;;7.30;2.60;;;6.70;92.20;;;;;;4926243;29;20440;-84
2022/02/12 11:31:28;;;;;;;5.37;2.87;;;6.90;91.30;;;;;;4932531;29;20457;-85
2022/02/12 11:34:21;;;;;;;9.30;2.93;;;6.80;91.40;;;;;;4926851;29;20540;-84
2022/02/12 11:37:18;;;;;;;4.40;2.37;;;6.80;91.40;;;;;;4927572;29;20525;-83
2022/02/12 11:40:15;;;;;;;5.00;2.70;;;6.90;91.10;;;;;;4975206;28;20454;-85
2022/02/12 11:42:58;;;;;;;9.57;3.23;;;6.50;91.40;;;;;;4976598;28;20485;-84
2022/02/12 11:45:36;;;;;;;4.83;3.07;;;6.70;91.30;;;;;;4974478;28;20467;-85
2022/02/12 11:48:28;;;;;;;5.07;3.20;;;6.80;91.30;;;;;;4974075;28;20449;-84
2022/02/12 11:51:23;;;;;;;41.60;20.37;;;6.80;90.80;;;;;;4974190;28;20484;-84
2022/02/12 11:54:01;;;;;;;16.67;4.40;;;6.80;90.70;;;;;;4972524;28;20483;-84
2022/02/12 11:56:44;;;;;;;5.60;3.40;;;6.80;91.00;;;;;;4987353;28;20491;-83
2022/02/12 11:59:22;;;;;;;10.90;3.60;;;6.80;91.00;;;;;;4970897;28;20528;-85
2022/02/12 12:02:06;;;;;;;7.70;3.80;;;6.50;91.50;;;;;;4972418;28;21095;-84
2022/02/12 12:05:12;;;;;;;9.60;3.63;;;7.10;91.40;;;;;;4968931;28;20503;-84
2022/02/12 12:08:06;;;;;;;8.47;3.40;;;7.10;91.10;;;;;;4979098;28;20554;-84
2022/02/12 12:11:07;;;;;;;7.50;3.23;;;7.10;90.80;;;;;;4982624;28;20530;-85
2022/02/12 12:13:59;;;;;;;6.43;3.23;;;7.20;90.40;;;;;;4948547;28;20479;-84
2022/02/12 12:16:33;;;;;;;5.60;2.40;;;7.30;90.10;;;;;;4991393;28;20446;-84
2022/02/12 12:19:53;;;;;;;8.13;3.30;;;7.20;90.20;;;;;;4975514;28;20469;-84
2022/02/12 12:22:40;;;;;;;8.80;3.20;;;7.40;90.20;;;;;;4984817;28;20631;-84
2022/02/12 12:25:19;;;;;;;17.33;3.60;;;7.20;90.30;;;;;;4972368;28;20554;-85
2022/02/12 12:27:55;;;;;;;6.03;2.80;;;7.50;90.10;;;;;;4968881;28;20466;-86
2022/02/12 12:30:44;;;;;;;4.67;2.80;;;7.50;89.70;;;;;;4975565;28;20494;-85
2022/02/12 12:33:17;;;;;;;5.90;3.17;;;7.50;89.90;;;;;;4975548;28;20479;-85
2022/02/12 12:35:59;;;;;;;7.10;3.20;;;7.50;89.20;;;;;;4968448;28;20454;-85
2022/02/12 12:38:48;;;;;;;7.90;3.40;;;7.40;88.30;;;;;;4971371;28;20494;-84
2022/02/12 12:41:45;;;;;;;8.40;2.87;;;7.40;88.90;;;;;;4975407;28;20547;-84
2022/02/12 12:48:33;;;;;;;8.27;2.87;;;7.10;90.20;;;;;;4982175;28;20431;-83
2022/02/12 12:51:00;;;;;;;6.10;3.13;;;7.10;90.00;;;;;;4963702;28;20555;-85
2022/02/12 12:53:33;;;;;;;4.03;2.40;;;7.40;89.00;;;;;;4969716;28;21413;-84
2022/02/12 12:56:23;;;;;;;5.03;2.93;;;7.60;88.40;;;;;;4972990;28;20498;-84
2022/02/12 12:59:09;;;;;;;7.53;3.40;;;7.30;88.50;;;;;;4970064;28;20563;-84
2022/02/12 13:02:07;;;;;;;6.30;2.40;;;7.40;89.60;;;;;;4986939;28;20476;-84
2022/02/12 13:05:01;;;;;;;6.77;2.73;;;7.70;88.60;;;;;;4977413;28;20481;-85
2022/02/12 13:07:37;;;;;;;8.43;3.40;;;7.60;86.60;;;;;;4981097;28;20539;-85
2022/02/12 13:10:05;;;;;;;4.90;3.00;;;7.60;86.50;;;;;;4973874;28;20459;-86
2022/02/12 13:12:37;;;;;;;5.17;2.57;;;7.40;87.10;;;;;;4979451;28;20479;-85
2022/02/12 13:15:23;;;;;;;6.83;3.63;;;7.60;86.00;;;;;;4985111;28;20867;-85
2022/02/12 13:17:57;;;;;;;6.70;2.73;;;7.50;86.40;;;;;;4989310;28;20496;-83
2022/02/12 13:20:29;;;;;;;4.97;2.83;;;7.80;85.40;;;;;;4977066;28;21354;-84
2022/02/12 13:23:20;;;;;;;3.90;2.57;;;7.80;85.20;;;;;;4973606;28;20515;-85
2022/02/12 13:26:02;;;;;;;9.93;3.90;;;7.70;85.50;;;;;;4975159;28;20525;-85
2022/02/12 13:28:52;;;;;;;5.13;3.33;;;7.80;85.90;;;;;;4987250;28;20471;-85
2022/02/12 13:31:44;;;;;;;5.10;3.10;;;8.00;84.60;;;;;;4975633;28;20602;-84
2022/02/12 13:34:25;;;;;;;4.13;2.70;;;8.00;84.60;;;;;;4976890;28;20463;-84
2022/02/12 13:37:25;;;;;;;5.57;2.40;;;8.00;83.80;;;;;;4972306;28;20491;-86
2022/02/12 13:40:39;;;;;;;8.00;3.43;;;7.90;83.90;;;;;;4917401;29;20455;-84
2022/02/12 13:43:29;;;;;;;;;;;;;;;;;;;;;
2022/02/12 13:46:25;;;;;;;6.50;2.80;;;7.80;83.90;;;;;;4863979;29;20480;-84
2022/02/12 13:49:49;;;;;;;5.27;2.37;;;7.90;84.40;;;;;;4863870;29;20524;-84
2022/02/12 13:52:23;;;;;;;5.17;2.50;;;7.90;83.50;;;;;;4853769;29;20526;-86
2022/02/12 13:55:09;;;;;;;8.03;3.00;;;7.70;82.90;;;;;;4859720;29;20570;-85
2022/02/12 13:57:47;;;;;;;3.13;2.50;;;7.80;83.10;;;;;;4863215;29;20503;-86
2022/02/12 14:00:49;;;;;;;6.03;3.30;;;7.70;83.30;;;;;;4862566;29;20466;-86
2022/02/12 14:03:42;;;;;;;3.00;2.00;;;7.90;82.80;;;;;;4861510;29;20583;-85